Terminal Aerodrome Forecast
Issued by NWS Pittsburgh, PA

Current Version | Previous Version | Text Only | Print | Product List | Glossary Off
Versions: 1 2 3 4 5 6 7 8 9 10 11 12 13 14 15 16 17 18 19 20 21 22 23 24 25 26 27 28 29 30

000
FTUS41 KPBZ 280500
TAFPIT
TAF
KPIT 280523Z 2806/0112 VRB03KT P6SM BKN250
     FM281700 VRB03KT P6SM BKN120
     FM010400 09006KT P6SM OVC080
     FM010800 14006KT 2SM -SN OVC015=

USA.gov is the U.S. government's official web portal to all federal, state and local government web resources and services.